Terminal Aerodrome Forecast
Issued by NWS Omaha/Valley, NE

Home | Current Version | Previous Version | Text Only | Print | Product List | Glossary Off
Versions: 1 2 3 4 5 6 7 8 9 10 11 12 13 14 15 16 17 18 19

000
FTUS43 KOAX 241720
TAFOFK
TAF
KOFK 241720Z 2418/2518 32013G21KT P6SM VCSH OVC040
      TEMPO 2418/2421 4SM -SHRA OVC025
     FM242300 01012KT P6SM OVC015
      TEMPO 2423/2501 4SM SHRA OVC007
     FM250200 01008KT P6SM OVC020
     FM250600 01009KT 4SM -SHRA OVC015 PROB30 2508/2514 -SHRA
      OVC007=

USA.gov is the U.S. government's official web portal to all federal, state and local government web resources and services.